Time;durP1;ratioP1;P1;durP2;ratioP2;P2;SDS_P1;SDS_P2;PMS_P1;PMS_P2;Temp;Humidity;BMP_temperature;BMP_pressure;BME280_temperature;BME280_humidity;BME280_pressure;Samples;Min_cycle;Max_cycle;Signal;HPM_P1;HPM_P2
2022/12/20 00:01:33;;;;;;;4.63;1.60;;;;;;;-145.69;100.00;52715.72;5095710;28;20198;-83
2022/12/20 00:04:04;;;;;;;3.33;1.83;;;;;;;-145.69;100.00;52725.63;5096053;28;20202;-83
2022/12/20 00:06:31;;;;;;;2.73;1.60;;;;;;;-145.69;100.00;52703.81;5095161;28;20289;-84
2022/12/20 00:08:59;;;;;;;6.53;2.10;;;;;;;-145.69;100.00;52687.97;5096380;28;20230;-83
2022/12/20 00:11:27;;;;;;;3.30;1.83;;;;;;;-145.69;100.00;52777.09;5096435;28;20204;-83
2022/12/20 00:13:53;;;;;;;2.63;1.63;;;;;;;-145.69;100.00;52739.47;5093662;28;20191;-83
2022/12/20 00:16:22;;;;;;;4.87;1.50;;;;;;;-145.69;100.00;52751.34;5102049;28;20218;-84
2022/12/20 00:18:51;;;;;;;3.00;1.53;;;;;;;-145.69;100.00;52729.56;5099919;28;20200;-84
2022/12/20 00:21:19;;;;;;;3.57;1.70;;;;;;;-145.69;100.00;52709.78;5082515;28;20190;-84
2022/12/20 00:23:46;;;;;;;3.57;1.60;;;;;;;-145.69;100.00;52719.66;5099311;28;20206;-84
2022/12/20 00:26:15;;;;;;;4.43;1.77;;;;;;;-145.69;100.00;52713.72;5095779;28;20205;-83
2022/12/20 00:28:42;;;;;;;6.30;1.87;;;;;;;-145.69;100.00;52725.63;5095651;28;20245;-83
2022/12/20 00:31:10;;;;;;;3.80;1.77;;;;;;;-145.69;100.00;52729.56;5095321;28;20198;-83
2022/12/20 00:33:38;;;;;;;4.97;1.60;;;;;;;-145.69;100.00;52713.72;5095125;28;20296;-83
2022/12/20 00:36:06;;;;;;;5.97;1.80;;;;;;;-145.69;100.00;52721.66;5095118;28;20228;-83
2022/12/20 00:38:35;;;;;;;7.37;1.80;;;;;;;-145.69;100.00;52725.63;5096231;28;20198;-83
2022/12/20 00:41:04;;;;;;;3.40;1.33;;;;;;;-145.69;100.00;52725.63;5099755;28;20194;-84
2022/12/20 00:43:31;;;;;;;2.77;1.50;;;;;;;-145.69;100.00;52684.03;5101602;28;20190;-82
2022/12/20 00:45:58;;;;;;;2.90;1.50;;;;;;;-145.69;100.00;52721.66;5100941;28;20205;-83
2022/12/20 00:48:25;;;;;;;3.43;1.30;;;;;;;-145.69;100.00;52751.34;5100747;28;20229;-84
2022/12/20 00:50:52;;;;;;;2.27;1.50;;;;;;;-145.69;100.00;52709.78;5104432;28;20200;-84
2022/12/20 00:53:18;;;;;;;3.07;1.50;;;;;;;-145.69;100.00;52743.44;5087451;28;20205;-84
2022/12/20 00:55:46;;;;;;;1.47;1.23;;;;;;;-145.69;100.00;52729.56;5086172;28;20199;-85
2022/12/20 00:58:13;;;;;;;2.40;1.27;;;;;;;-145.69;100.00;52747.41;5083131;28;20207;-85
2022/12/20 01:00:40;;;;;;;3.13;1.20;;;;;;;-145.69;100.00;52709.78;5081475;28;20207;-85
2022/12/20 01:03:07;;;;;;;1.67;1.20;;;;;;;-145.69;100.00;52747.41;5081501;28;20203;-85
2022/12/20 01:05:34;;;;;;;7.50;1.30;;;;;;;-145.69;100.00;52729.56;5091494;28;20204;-85
2022/12/20 01:08:00;;;;;;;3.67;1.20;;;;;;;-145.69;100.00;52753.34;5102547;28;20229;-85
2022/12/20 01:10:27;;;;;;;2.40;1.40;;;;;;;-145.69;100.00;52747.41;5105018;28;20205;-84
2022/12/20 01:12:55;;;;;;;2.97;1.23;;;;;;;-145.69;100.00;52703.81;5099482;28;20661;-85
2022/12/20 01:15:22;;;;;;;1.87;1.30;;;;;;;-145.69;100.00;52729.56;5102965;28;20224;-84
2022/12/20 01:17:48;;;;;;;4.03;1.23;;;;;;;-145.69;100.00;52751.34;5101441;28;20215;-84
2022/12/20 01:20:15;;;;;;;3.47;1.30;;;;;;;-145.69;100.00;52709.78;5090792;28;20221;-84
2022/12/20 01:22:42;;;;;;;1.70;1.30;;;;;;;-145.69;100.00;52745.41;5099914;28;20198;-84
2022/12/20 01:25:08;;;;;;;2.33;1.27;;;;;;;-145.69;100.00;52753.34;5097621;28;20198;-82
2022/12/20 01:27:35;;;;;;;2.40;1.20;;;;;;;-145.69;100.00;52729.56;5095147;28;20201;-82
2022/12/20 01:30:03;;;;;;;2.07;1.20;;;;;;;-145.69;100.00;52697.88;5081828;28;20558;-83
2022/12/20 01:32:30;;;;;;;2.70;1.33;;;;;;;-145.69;100.00;52725.63;5076961;28;20228;-83
2022/12/20 01:34:56;;;;;;;4.63;1.30;;;;;;;-145.69;100.00;52705.81;5088709;28;20194;-83
2022/12/20 01:37:22;;;;;;;1.87;1.23;;;;;;;-145.69;100.00;52684.03;5090781;28;20229;-83
2022/12/20 01:39:49;;;;;;;1.90;1.10;;;;;;;-145.69;100.00;52729.56;5076769;28;20605;-84
2022/12/20 01:42:16;;;;;;;1.17;0.93;;;;;;;-145.69;100.00;52695.91;5076158;28;20202;-84
2022/12/20 01:44:56;;;;;;;5.87;1.60;;;;;;;-145.69;100.00;52717.69;5076164;28;20203;-84
2022/12/20 01:47:26;;;;;;;7.37;1.43;;;;;;;-145.69;100.00;52678.09;5077529;28;20191;-84
2022/12/20 01:49:56;;;;;;;2.73;1.10;;;;;;;-145.69;100.00;52717.69;5092651;28;20222;-84
2022/12/20 01:52:27;;;;;;;6.63;1.20;;;;;;;-145.69;100.00;52693.94;5096211;28;20202;-83
2022/12/20 01:55:00;;;;;;;1.33;1.10;;;;;;;-145.69;100.00;52717.69;5099551;28;20682;-83
2022/12/20 01:57:32;;;;;;;3.47;1.10;;;;;;;-145.69;100.00;52719.66;5097065;28;20220;-84
2022/12/20 01:59:59;;;;;;;1.60;1.20;;;;;;;-145.69;100.00;52715.72;5099756;28;20199;-85
2022/12/20 02:02:27;;;;;;;4.90;1.33;;;;;;;-145.69;100.00;52717.69;5097721;28;20664;-85
2022/12/20 02:04:53;;;;;;;1.13;0.90;;;;;;;-145.69;100.00;52705.81;5097872;28;20205;-85
2022/12/20 02:07:24;;;;;;;1.10;0.80;;;;;;;-145.69;100.00;52707.78;5097338;28;20209;-84
2022/12/20 02:09:52;;;;;;;1.67;1.23;;;;;;;-145.69;100.00;52693.94;5098059;28;20229;-85
2022/12/20 02:12:22;;;;;;;1.60;1.07;;;;;;;-145.69;100.00;52684.03;5098517;28;20205;-84
2022/12/20 02:15:04;;;;;;;6.30;1.47;;;;;;;-145.69;100.00;52721.66;5097683;28;20194;-84
2022/12/20 02:17:45;;;;;;;2.70;1.20;;;;;;;-145.69;100.00;52707.78;5079102;28;20459;-85
2022/12/20 02:20:38;;;;;;;1.47;1.17;;;;;;;-145.69;100.00;52713.72;5094982;28;20201;-83
2022/12/20 02:23:24;;;;;;;1.60;1.00;;;;;;;-145.69;100.00;52717.69;5099403;28;20202;-84
2022/12/20 02:26:04;;;;;;;2.13;1.20;;;;;;;-145.69;100.00;52693.94;5094460;28;20668;-83
2022/12/20 02:28:44;;;;;;;2.70;1.10;;;;;;;-145.69;100.00;52725.63;5097233;28;20228;-85
2022/12/20 02:31:16;;;;;;;1.53;1.00;;;;;;;-145.69;100.00;52693.94;5097354;28;20676;-84
2022/12/20 02:33:47;;;;;;;4.83;1.20;;;;;;;-145.69;100.00;52707.78;5094289;28;20576;-85
2022/12/20 02:36:14;;;;;;;2.83;1.47;;;;;;;-145.69;100.00;52721.66;5093152;28;20712;-85
2022/12/20 02:38:41;;;;;;;1.50;1.10;;;;;;;-145.69;100.00;52717.69;5093466;28;20201;-84
2022/12/20 02:41:11;;;;;;;3.10;1.40;;;;;;;-145.69;100.00;52737.50;5093450;28;20213;-84
2022/12/20 02:46:27;;;;;;;1.63;0.90;;;;;;;-145.69;100.00;52705.81;5092668;28;20220;-84
2022/12/20 02:48:58;;;;;;;2.63;1.30;;;;;;;-145.69;100.00;52727.59;5092748;28;20580;-84
2022/12/20 02:51:27;;;;;;;4.03;1.43;;;;;;;-145.69;100.00;52717.69;5093513;28;20198;-84
2022/12/20 02:53:53;;;;;;;5.07;1.30;;;;;;;-145.69;100.00;52701.84;5083635;28;20195;-84
2022/12/20 02:56:23;;;;;;;2.20;1.23;;;;;;;-145.69;100.00;52693.94;5073807;28;20203;-84
2022/12/20 02:58:53;;;;;;;1.03;0.70;;;;;;;-145.69;100.00;52687.97;5073833;28;20198;-84
2022/12/20 03:01:25;;;;;;;2.67;1.10;;;;;;;-145.69;100.00;52705.81;5074200;28;20206;-83
2022/12/20 03:03:57;;;;;;;1.90;1.50;;;;;;;-145.69;100.00;52687.97;5092184;28;20204;-84
2022/12/20 03:06:24;;;;;;;3.20;1.27;;;;;;;-145.69;100.00;52684.03;5093510;28;20652;-84
2022/12/20 03:08:51;;;;;;;2.10;1.40;;;;;;;-145.69;100.00;52713.72;5093008;28;20237;-84
2022/12/20 03:11:19;;;;;;;2.13;1.10;;;;;;;-145.69;100.00;52682.03;5093365;28;20198;-84
2022/12/20 03:13:45;;;;;;;2.22;1.30;;;;;;;-145.69;100.00;52707.78;5092075;28;20500;-83
2022/12/20 03:16:12;;;;;;;2.57;1.33;;;;;;;-145.69;100.00;52697.88;5073392;28;20210;-84
2022/12/20 03:18:39;;;;;;;4.63;1.23;;;;;;;-145.69;100.00;52717.69;5090971;28;20210;-84
2022/12/20 03:21:07;;;;;;;1.93;1.23;;;;;;;-145.69;100.00;52713.72;5094334;28;20202;-85
2022/12/20 03:23:33;;;;;;;1.13;1.03;;;;;;;-145.69;100.00;52711.75;5080174;28;20194;-83
2022/12/20 03:26:00;;;;;;;7.83;1.37;;;;;;;-145.69;100.00;52695.91;5073286;28;20561;-84
2022/12/20 03:28:26;;;;;;;1.50;1.20;;;;;;;-145.69;100.00;52701.84;5073839;28;20226;-84
2022/12/20 03:30:53;;;;;;;3.47;1.20;;;;;;;-145.69;100.00;52709.78;5079125;28;20197;-84
2022/12/20 03:33:19;;;;;;;3.17;1.43;;;;;;;-145.69;100.00;52678.09;5092869;28;20209;-83
2022/12/20 03:35:47;;;;;;;3.53;1.30;;;;;;;-145.69;100.00;52729.56;5072741;28;20231;-83
2022/12/20 03:38:15;;;;;;;2.17;1.57;;;;;;;-145.69;100.00;52687.97;5072721;28;20577;-83
2022/12/20 03:40:41;;;;;;;2.13;1.17;;;;;;;-145.69;100.00;52699.88;5086000;28;20581;-83
2022/12/20 03:43:07;;;;;;;2.13;1.30;;;;;;;-145.69;100.00;52693.94;5078572;28;20221;-83
2022/12/20 03:45:34;;;;;;;1.90;1.20;;;;;;;-145.69;100.00;52678.09;5076437;28;20199;-84
2022/12/20 03:48:00;;;;;;;2.67;1.10;;;;;;;-145.69;100.00;52693.94;5093362;28;20289;-83
2022/12/20 03:50:27;;;;;;;2.40;1.10;;;;;;;-145.69;100.00;52727.59;5094972;28;20452;-84
2022/12/20 03:52:53;;;;;;;3.80;1.40;;;;;;;-145.69;100.00;52687.97;5096515;28;20538;-83
2022/12/20 03:55:21;;;;;;;3.57;1.33;;;;;;;-145.69;100.00;52686.00;5096406;28;20213;-83
2022/12/20 03:57:48;;;;;;;1.60;1.20;;;;;;;-145.69;100.00;52697.88;5097329;28;20286;-83
2022/12/20 04:00:16;;;;;;;3.45;1.50;;;;;;;-145.69;100.00;52725.63;5097402;28;20432;-83
2022/12/20 04:02:42;;;;;;;1.40;1.30;;;;;;;-145.69;100.00;52658.28;5097102;28;20556;-83
2022/12/20 04:05:09;;;;;;;4.83;1.33;;;;;;;-145.69;100.00;52709.78;5098840;28;20197;-84
2022/12/20 04:07:35;;;;;;;2.83;1.40;;;;;;;-145.69;100.00;52674.13;5099053;28;20205;-84
2022/12/20 04:10:02;;;;;;;2.97;1.40;;;;;;;-145.69;100.00;52682.03;5096390;28;20222;-83
2022/12/20 04:12:30;;;;;;;1.80;1.27;;;;;;;-145.69;100.00;52680.06;5081849;28;20558;-83
2022/12/20 04:14:56;;;;;;;1.57;1.20;;;;;;;-145.69;100.00;52705.81;5075537;28;20290;-83
2022/12/20 04:17:23;;;;;;;2.63;1.40;;;;;;;-145.69;100.00;52721.66;5091590;28;20197;-83
2022/12/20 04:19:49;;;;;;;2.93;1.30;;;;;;;-145.69;100.00;52713.72;5096218;28;20228;-83
2022/12/20 04:22:16;;;;;;;2.83;1.30;;;;;;;-145.69;100.00;52707.78;5095487;28;20210;-83
2022/12/20 04:24:42;;;;;;;2.33;1.40;;;;;;;-145.69;100.00;52709.78;5095141;28;20194;-82
2022/12/20 04:27:09;;;;;;;2.73;1.60;;;;;;;-145.69;100.00;52680.06;5095285;28;20565;-82
2022/12/20 04:29:36;;;;;;;5.27;1.57;;;;;;;-145.69;100.00;52693.94;5094447;28;20226;-82
2022/12/20 04:32:03;;;;;;;1.80;1.10;;;;;;;-145.69;100.00;52739.47;5094929;28;20221;-82
2022/12/20 04:34:30;;;;;;;4.60;1.40;;;;;;;-145.69;100.00;52725.63;5095075;28;20217;-82
2022/12/20 04:36:56;;;;;;;3.60;1.07;;;;;;;-145.69;100.00;52693.94;5095234;28;20696;-83
2022/12/20 04:39:23;;;;;;;6.50;1.53;;;;;;;-145.69;100.00;52705.81;5080746;28;20191;-84
2022/12/20 04:41:49;;;;;;;2.57;1.20;;;;;;;-145.69;100.00;52723.63;5077382;28;20194;-84
2022/12/20 04:44:16;;;;;;;1.60;1.23;;;;;;;-145.69;100.00;52727.59;5075916;28;20202;-83
2022/12/20 04:46:44;;;;;;;1.60;1.20;;;;;;;-145.69;100.00;52686.00;5090604;28;20549;-84
2022/12/20 04:49:10;;;;;;;2.43;1.13;;;;;;;-145.69;100.00;52705.81;5096133;28;20229;-83
2022/12/20 04:51:37;;;;;;;4.33;1.40;;;;;;;-145.69;100.00;52713.72;5095640;28;20202;-83
2022/12/20 04:54:02;;;;;;;5.30;1.30;;;;;;;-145.69;100.00;52682.03;5093913;28;20577;-83
2022/12/20 04:56:29;;;;;;;5.93;1.30;;;;;;;-145.69;100.00;52693.94;5094832;28;20213;-83
2022/12/20 04:58:58;;;;;;;4.30;1.30;;;;;;;-145.69;100.00;52725.63;5094858;28;20218;-83
2022/12/20 05:01:24;;;;;;;2.30;1.40;;;;;;;-145.69;100.00;52719.66;5093615;28;20661;-82
2022/12/20 05:03:52;;;;;;;3.63;1.63;;;;;;;-145.69;100.00;52650.34;5093830;28;20194;-82
2022/12/20 05:06:19;;;;;;;6.67;1.70;;;;;;;-145.69;100.00;52723.63;5094308;28;20217;-82
2022/12/20 05:08:46;;;;;;;5.83;1.50;;;;;;;-145.69;100.00;52739.47;5085855;28;20194;-81
2022/12/20 05:11:13;;;;;;;3.37;1.50;;;;;;;-145.69;100.00;52689.97;5073961;28;20260;-82
2022/12/20 05:13:40;;;;;;;8.20;1.97;;;;;;;-145.69;100.00;52715.72;5074106;28;20210;-81
2022/12/20 05:16:07;;;;;;;5.27;1.80;;;;;;;-145.69;100.00;52664.22;5088694;28;20194;-81
2022/12/20 05:18:34;;;;;;;4.37;1.40;;;;;;;-145.69;100.00;52691.94;5094211;28;20197;-82
2022/12/20 05:26:34;;;;;;;4.43;1.60;;;;;;;-145.69;100.00;52695.91;5073739;28;20248;-81
2022/12/20 05:29:00;;;;;;;4.77;1.90;;;;;;;-145.69;100.00;52703.81;5073683;28;20233;-81
2022/12/20 05:31:27;;;;;;;5.57;1.50;;;;;;;-145.69;100.00;52703.81;5076008;28;20206;-81
2022/12/20 05:33:54;;;;;;;4.33;1.60;;;;;;;-145.69;100.00;52701.84;5073783;28;20198;-82
2022/12/20 05:36:22;;;;;;;7.70;1.90;;;;;;;-145.69;100.00;52701.84;5073297;28;20337;-81
2022/12/20 05:38:48;;;;;;;3.53;1.70;;;;;;;-145.69;100.00;52693.94;5073690;28;20198;-81
2022/12/20 05:41:15;;;;;;;4.00;1.70;;;;;;;-145.69;100.00;52735.50;5073437;28;20195;-81
2022/12/20 05:43:42;;;;;;;3.70;1.70;;;;;;;-145.69;100.00;52717.69;5073442;28;20207;-80
2022/12/20 05:46:10;;;;;;;4.33;1.43;;;;;;;-145.69;100.00;52737.50;5092691;28;20194;-81
2022/12/20 05:48:37;;;;;;;4.13;1.80;;;;;;;-145.69;100.00;52687.97;5093035;28;20553;-80
2022/12/20 05:51:04;;;;;;;5.83;1.70;;;;;;;-145.69;100.00;52715.72;5093466;28;20233;-81
2022/12/20 05:53:32;;;;;;;8.13;1.90;;;;;;;-145.69;100.00;52693.94;5093576;28;20275;-81
2022/12/20 05:56:00;;;;;;;6.97;1.80;;;;;;;-145.69;100.00;52701.84;5093184;28;20190;-80
2022/12/20 05:58:27;;;;;;;9.93;1.80;;;;;;;-145.69;100.00;52715.72;5093371;28;20206;-79
2022/12/20 06:00:54;;;;;;;3.13;1.40;;;;;;;-145.69;100.00;52666.19;5093352;28;20198;-81
2022/12/20 06:03:21;;;;;;;5.60;1.90;;;;;;;-145.69;100.00;52686.00;5093295;28;20653;-81
2022/12/20 06:05:47;;;;;;;2.60;1.53;;;;;;;-145.69;100.00;52701.84;5093123;28;20209;-81
2022/12/20 06:08:14;;;;;;;5.43;2.20;;;;;;;-145.69;100.00;52695.91;5093258;28;20198;-80
2022/12/20 06:10:42;;;;;;;5.43;1.80;;;;;;;-145.69;100.00;52713.72;5093192;28;20225;-80
2022/12/20 06:13:10;;;;;;;3.67;1.60;;;;;;;-145.69;100.00;52705.81;5092869;28;20194;-80
2022/12/20 06:15:37;;;;;;;3.43;1.87;;;;;;;-145.69;100.00;52686.00;5093340;28;20205;-81
2022/12/20 06:18:04;;;;;;;2.73;1.80;;;;;;;-145.69;100.00;52725.63;5092181;28;20653;-81
2022/12/20 06:20:31;;;;;;;5.70;2.07;;;;;;;-145.69;100.00;52713.72;5089823;28;20195;-80
2022/12/20 06:22:58;;;;;;;6.13;2.17;;;;;;;-145.69;100.00;52705.81;5093095;28;20557;-81
2022/12/20 06:25:25;;;;;;;6.97;2.67;;;;;;;-145.69;100.00;52709.78;5092702;28;20204;-80
2022/12/20 06:27:53;;;;;;;4.53;2.10;;;;;;;-145.69;100.00;52715.72;5092708;28;20202;-81
2022/12/20 06:30:20;;;;;;;5.23;1.90;;;;;;;-145.69;100.00;52709.78;5093113;28;20230;-81
2022/12/20 06:32:49;;;;;;;3.40;1.75;;;;;;;-145.69;100.00;52707.78;5092838;28;20441;-81
2022/12/20 06:35:16;;;;;;;4.73;1.97;;;;;;;-145.69;100.00;52709.78;5092899;28;20206;-80
2022/12/20 06:37:43;;;;;;;3.13;1.77;;;;;;;-145.69;100.00;52686.00;5092916;28;20212;-81
2022/12/20 06:40:12;;;;;;;3.00;1.67;;;;;;;-145.69;100.00;52693.94;5092909;28;20231;-81
2022/12/20 06:42:38;;;;;;;4.57;1.97;;;;;;;-145.69;100.00;52686.00;5092900;28;20194;-81
2022/12/20 06:45:08;;;;;;;7.93;2.50;;;;;;;-145.69;100.00;52713.72;5093100;28;20205;-80
2022/12/20 06:47:35;;;;;;;8.23;2.47;;;;;;;-145.69;100.00;52701.84;5092485;28;20641;-80
2022/12/20 06:50:02;;;;;;;13.80;2.10;;;;;;;-145.69;100.00;52693.94;5092876;28;20226;-79
2022/12/20 06:52:28;;;;;;;7.83;2.30;;;;;;;-145.69;100.00;52711.75;5092545;28;20217;-81
2022/12/20 06:54:55;;;;;;;7.63;2.03;;;;;;;-145.69;100.00;52717.69;5092766;28;20198;-80
2022/12/20 06:57:21;;;;;;;5.13;2.53;;;;;;;-145.69;100.00;52664.22;5092665;28;20675;-81
2022/12/20 06:59:48;;;;;;;4.03;2.20;;;;;;;-145.69;100.00;52711.75;5092951;28;20561;-81
2022/12/20 07:02:16;;;;;;;7.33;2.20;;;;;;;-145.69;100.00;52703.81;5092813;28;20198;-80
2022/12/20 07:04:42;;;;;;;7.50;2.60;;;;;;;-145.69;100.00;52709.78;5092825;28;20194;-81
2022/12/20 07:07:09;;;;;;;10.73;2.10;;;;;;;-145.69;100.00;52719.66;5092598;28;20201;-80
2022/12/20 07:09:36;;;;;;;5.00;2.13;;;;;;;-145.69;100.00;52705.81;5092371;28;20237;-80
2022/12/20 07:12:04;;;;;;;8.27;2.50;;;;;;;-145.69;100.00;52719.66;5092285;28;20224;-80
2022/12/20 07:14:30;;;;;;;8.70;2.23;;;;;;;-145.69;100.00;52674.13;5092328;28;20348;-81
2022/12/20 07:16:57;;;;;;;8.03;3.23;;;;;;;-145.69;100.00;52715.72;5092811;28;20197;-81
2022/12/20 07:19:25;;;;;;;6.97;2.70;;;;;;;-145.69;100.00;52674.13;5096395;28;20292;-81
2022/12/20 07:21:51;;;;;;;5.27;2.33;;;;;;;-145.69;100.00;52662.22;5096325;28;20198;-80
2022/12/20 07:24:18;;;;;;;11.83;3.00;;;;;;;-145.69;100.00;52719.66;5096207;28;20549;-81
2022/12/20 07:26:45;;;;;;;8.20;2.83;;;;;;;-145.69;100.00;52695.91;5096027;28;20296;-80
2022/12/20 07:29:12;;;;;;;7.17;2.60;;;;;;;-145.69;100.00;52687.97;5096261;28;20224;-81
2022/12/20 07:31:38;;;;;;;10.20;2.50;;;;;;;-145.69;100.00;52678.09;5096222;28;20202;-82
2022/12/20 07:34:05;;;;;;;8.97;2.83;;;;;;;-145.69;100.00;52715.72;5096158;28;20661;-82
2022/12/20 07:36:32;;;;;;;5.47;3.07;;;;;;;-145.69;100.00;52697.88;5095991;28;20230;-81
2022/12/20 07:38:59;;;;;;;8.27;2.97;;;;;;;-145.69;100.00;52650.34;5096120;28;20198;-82
2022/12/20 07:41:26;;;;;;;7.70;2.63;;;;;;;-145.69;100.00;52686.00;5096112;28;20214;-82
2022/12/20 07:43:52;;;;;;;9.17;2.67;;;;;;;-145.69;100.00;52721.66;5096300;28;20201;-81
2022/12/20 07:46:20;;;;;;;8.00;2.80;;;;;;;-145.69;100.00;52699.88;5095891;28;20652;-81
2022/12/20 07:48:46;;;;;;;8.53;2.60;;;;;;;-145.69;100.00;52697.88;5095123;28;20652;-79
2022/12/20 07:51:17;;;;;;;12.00;2.63;;;;;;;-145.69;100.00;52687.97;5096222;28;20233;-80
2022/12/20 07:53:48;;;;;;;6.83;2.90;;;;;;;-145.69;100.00;52721.66;5095461;28;20198;-80
2022/12/20 07:56:16;;;;;;;7.23;2.50;;;;;;;-145.69;100.00;52687.97;5095698;28;20198;-80
2022/12/20 07:58:43;;;;;;;7.93;3.00;;;;;;;-145.69;100.00;52693.94;5095693;28;20201;-81
2022/12/20 08:01:12;;;;;;;8.77;2.53;;;;;;;-145.69;100.00;52699.88;5095601;28;20233;-80
2022/12/20 08:03:43;;;;;;;4.67;2.50;;;;;;;-145.69;100.00;52674.13;5095735;28;20209;-81
2022/12/20 08:06:10;;;;;;;5.03;2.23;;;;;;;-145.69;100.00;52733.53;5095494;28;20205;-81
2022/12/20 08:08:40;;;;;;;8.60;2.23;;;;;;;-145.69;100.00;52715.72;5095272;28;20194;-81
2022/12/20 08:11:10;;;;;;;6.23;2.50;;;;;;;-145.69;100.00;52697.88;5095504;28;20230;-81
2022/12/20 08:13:37;;;;;;;5.60;2.37;;;;;;;-145.69;100.00;52701.84;5080262;28;20203;-81
2022/12/20 08:16:04;;;;;;;9.33;3.03;;;;;;;-145.69;100.00;52701.84;5075093;28;20199;-81
2022/12/20 08:18:31;;;;;;;12.53;2.47;;;;;;;-145.69;100.00;52684.03;5091631;28;20194;-82
2022/12/20 08:20:57;;;;;;;6.83;2.83;;;;;;;-145.69;100.00;52666.19;5095437;28;20202;-81
2022/12/20 08:23:24;;;;;;;5.93;3.07;;;;;;;-145.69;100.00;52689.97;5094921;28;20198;-82
2022/12/20 08:25:50;;;;;;;7.67;2.70;;;;;;;-145.69;100.00;52695.91;5086708;28;20561;-83
2022/12/20 08:28:20;;;;;;;4.93;2.60;;;;;;;-145.69;100.00;52721.66;5093175;28;20190;-82
2022/12/20 08:30:47;;;;;;;7.80;2.73;;;;;;;-145.69;100.00;52713.72;5094842;28;20226;-82
2022/12/20 08:33:13;;;;;;;6.53;2.67;;;;;;;-145.69;100.00;52699.88;5095230;28;20534;-81
2022/12/20 08:35:41;;;;;;;6.77;2.23;;;;;;;-145.69;100.00;52684.03;5094798;28;20226;-79
2022/12/20 08:38:08;;;;;;;8.33;2.37;;;;;;;-145.69;100.00;52678.09;5094833;28;20195;-79
2022/12/20 08:40:34;;;;;;;3.70;2.30;;;;;;;-145.69;100.00;52711.75;5094974;28;20208;-78
2022/12/20 08:43:01;;;;;;;7.37;2.70;;;;;;;-145.69;100.00;52705.81;5094649;28;20201;-77
2022/12/20 08:45:28;;;;;;;6.53;2.37;;;;;;;-145.69;100.00;52689.97;5095035;28;20201;-79
2022/12/20 08:47:55;;;;;;;4.67;2.13;;;;;;;-145.69;100.00;52658.28;5094106;28;20552;-82
2022/12/20 08:50:21;;;;;;;4.27;2.10;;;;;;;-145.69;100.00;52686.00;5094498;28;20217;-81
2022/12/20 08:52:48;;;;;;;5.17;2.37;;;;;;;-145.69;100.00;52691.94;5094703;28;20273;-81
2022/12/20 08:55:14;;;;;;;5.40;2.20;;;;;;;-145.69;100.00;52705.81;5094724;28;20205;-82
2022/12/20 08:57:41;;;;;;;5.63;2.10;;;;;;;-145.69;100.00;52707.78;5094744;28;20652;-82
2022/12/20 09:00:09;;;;;;;4.27;1.80;;;;;;;-145.69;100.00;52687.97;5095653;28;20224;-84
2022/12/20 09:02:41;;;;;;;5.23;2.30;;;;;;;-145.69;100.00;52682.03;5095289;28;20205;-82
2022/12/20 09:05:08;;;;;;;6.47;2.37;;;;;;;-145.69;100.00;52666.19;5096991;28;20259;-83
2022/12/20 09:07:34;;;;;;;9.17;2.47;;;;;;;-145.69;100.00;52713.72;5096280;28;20202;-81
2022/12/20 09:10:01;;;;;;;7.70;2.47;;;;;;;-145.69;100.00;52693.94;5096781;28;20557;-83
2022/12/20 09:12:28;;;;;;;6.90;2.60;;;;;;;-145.69;100.00;52662.22;5095881;28;20606;-83
2022/12/20 09:14:55;;;;;;;5.93;2.63;;;;;;;-145.69;100.00;52682.03;5096462;28;20209;-83
2022/12/20 09:17:21;;;;;;;5.43;2.10;;;;;;;-145.69;100.00;52656.28;5096229;28;20198;-83
2022/12/20 09:19:49;;;;;;;5.13;2.20;;;;;;;-145.69;100.00;52636.50;5096878;28;20228;-83
2022/12/20 09:22:15;;;;;;;4.63;2.50;;;;;;;-145.69;100.00;52701.84;5096724;28;20194;-84
2022/12/20 09:24:42;;;;;;;6.07;2.27;;;;;;;-145.69;100.00;52666.19;5097158;28;20198;-82
2022/12/20 09:27:08;;;;;;;7.53;2.40;;;;;;;-145.69;100.00;52662.22;5079164;28;20206;-83
2022/12/20 09:29:35;;;;;;;7.43;2.60;;;;;;;-145.69;100.00;52701.84;5077664;28;20210;-83
2022/12/20 09:32:01;;;;;;;5.13;2.43;;;;;;;-145.69;100.00;52687.97;5077845;28;20651;-83
2022/12/20 09:34:27;;;;;;;6.07;2.63;;;;;;;-145.69;100.00;52684.03;5077641;28;20202;-83
2022/12/20 09:36:55;;;;;;;6.80;2.83;;;;;;;-145.69;100.00;52709.78;5077897;28;20242;-83
2022/12/20 09:39:22;;;;;;;6.57;2.33;;;;;;;-145.69;100.00;52650.34;5077450;28;20214;-83
2022/12/20 09:41:48;;;;;;;8.30;2.20;;;;;;;-145.69;100.00;52682.03;5077661;28;20562;-82
2022/12/20 09:44:20;;;;;;;6.20;2.00;;;;;;;-145.69;100.00;52676.09;5095655;28;20194;-82
2022/12/20 09:46:54;;;;;;;4.73;1.93;;;;;;;-145.69;100.00;52674.13;5098602;28;20209;-83
2022/12/20 09:49:26;;;;;;;3.73;2.00;;;;;;;-145.69;100.00;52642.44;5099616;28;20198;-83
2022/12/20 09:52:09;;;;;;;5.07;2.40;;;;;;;-145.69;100.00;52666.19;5100751;28;20218;-82
2022/12/20 09:54:47;;;;;;;7.50;2.20;;;;;;;-145.69;100.00;52662.22;5100203;28;20292;-83
2022/12/20 09:57:23;;;;;;;4.53;2.10;;;;;;;-145.69;100.00;52658.28;5084457;28;20208;-83
2022/12/20 09:59:49;;;;;;;6.33;2.80;;;;;;;-145.69;100.00;52686.00;5100531;28;20197;-84
2022/12/20 10:02:20;;;;;;;5.50;2.10;;;;;;;-145.69;100.00;52654.31;5099746;28;20206;-84
2022/12/20 10:04:47;;;;;;;6.00;2.00;;;;;;;-145.69;100.00;52650.34;5095407;28;20667;-82
2022/12/20 10:07:31;;;;;;;5.90;2.00;;;;;;;-145.69;100.00;52662.22;5093672;28;20209;-82
2022/12/20 10:10:18;;;;;;;2.93;1.73;;;;;;;-145.69;100.00;52650.34;5093994;28;20303;-82
2022/12/20 10:12:50;;;;;;;8.30;1.87;;;;;;;-145.69;100.00;52672.13;5093251;28;20203;-80
2022/12/20 10:15:20;;;;;;;5.37;2.23;;;;;;;-145.69;100.00;52660.25;5093281;28;20202;-80
2022/12/20 10:17:58;;;;;;;5.93;1.93;;;;;;;-145.69;100.00;52674.13;5087510;28;20202;-80
2022/12/20 10:20:36;;;;;;;8.83;2.23;;;;;;;-145.69;100.00;52660.25;5075316;28;20674;-79
2022/12/20 10:23:12;;;;;;;4.67;1.77;;;;;;;-145.69;100.00;52652.34;5072900;28;20214;-79
2022/12/20 10:25:39;;;;;;;3.10;1.60;;;;;;;-145.69;100.00;52666.19;5073080;28;20297;-79
2022/12/20 10:28:12;;;;;;;4.73;2.03;;;;;;;-145.69;100.00;52642.44;5087471;28;20202;-79
2022/12/20 10:30:40;;;;;;;4.50;1.90;;;;;;;-145.69;100.00;52666.19;5092902;28;20721;-79
2022/12/20 10:33:17;;;;;;;8.05;1.90;;;;;;;-145.69;100.00;52642.44;5092721;28;20541;-79
2022/12/20 10:35:44;;;;;;;6.43;2.30;;;;;;;-145.69;100.00;52676.09;5092739;28;20230;-79
2022/12/20 10:38:16;;;;;;;4.77;1.90;;;;;;;-145.69;100.00;52691.94;5093082;28;20659;-80
2022/12/20 10:40:44;;;;;;;11.20;2.20;;;;;;;-145.69;100.00;52634.50;5093857;28;20263;-80
2022/12/20 10:43:17;;;;;;;4.23;1.87;;;;;;;-145.69;100.00;52650.34;5092652;28;20716;-80
2022/12/20 10:45:45;;;;;;;5.43;2.30;;;;;;;-145.69;100.00;52642.44;5092939;28;20206;-79
2022/12/20 10:48:28;;;;;;;6.17;2.03;;;;;;;-145.69;100.00;52654.31;5079278;28;20207;-79
2022/12/20 10:50:57;;;;;;;3.97;1.60;;;;;;;-145.69;100.00;52630.53;5073611;28;20230;-79
2022/12/20 10:53:26;;;;;;;7.77;1.50;;;;;;;-145.69;100.00;52642.44;5076768;28;20219;-79
2022/12/20 10:55:53;;;;;;;4.30;1.57;;;;;;;-145.69;100.00;52664.22;5077242;28;20608;-79
2022/12/20 10:58:30;;;;;;;11.23;2.30;;;;;;;-145.69;100.00;52658.28;5096802;28;20197;-80
2022/12/20 11:01:05;;;;;;;3.07;1.97;;;;;;;-145.69;100.00;52652.34;5096793;28;20209;-79
2022/12/20 11:03:31;;;;;;;7.70;1.93;;;;;;;-145.69;100.00;52650.34;5076746;28;20209;-80
2022/12/20 11:06:01;;;;;;;3.40;1.47;;;;;;;-145.69;100.00;52626.59;5076796;28;20202;-79
2022/12/20 11:08:31;;;;;;;2.90;1.73;;;;;;;-145.69;100.00;52644.41;5076402;28;20654;-79
2022/12/20 11:11:17;;;;;;;6.63;2.30;;;;;;;-145.69;100.00;52634.50;5081675;28;20267;-79
2022/12/20 11:13:45;;;;;;;7.07;1.97;;;;;;;-145.69;100.00;52646.41;5096535;28;20293;-79
2022/12/20 11:16:33;;;;;;;3.83;1.83;;;;;;;-145.69;100.00;52711.75;5096525;28;20458;-79
2022/12/20 11:19:15;;;;;;;3.80;1.63;;;;;;;-145.69;100.00;52620.66;5095844;28;20599;-79
2022/12/20 11:21:47;;;;;;;6.50;1.43;;;;;;;-145.69;100.00;52630.53;5096553;28;20198;-81
2022/12/20 11:24:29;;;;;;;3.83;1.60;;;;;;;-145.69;100.00;52658.28;5096636;28;20209;-79